sensor_id;sensor_type;location;lat;lon;timestamp;P1;durP1;ratioP1;P2;durP2;ratioP2
66012;SDS011;52783;50.502;8.190;2022-10-18T00:01:51;11.70;;;4.55;;
66012;SDS011;52783;50.502;8.190;2022-10-18T00:04:17;15.10;;;5.40;;
66012;SDS011;52783;50.502;8.190;2022-10-18T00:06:42;10.50;;;4.60;;
66012;SDS011;52783;50.502;8.190;2022-10-18T00:09:08;10.60;;;4.82;;
66012;SDS011;52783;50.502;8.190;2022-10-18T00:11:34;14.20;;;5.32;;
66012;SDS011;52783;50.502;8.190;2022-10-18T00:14:00;13.00;;;5.20;;
66012;SDS011;52783;50.502;8.190;2022-10-18T00:16:25;14.73;;;4.45;;
66012;SDS011;52783;50.502;8.190;2022-10-18T00:18:51;10.75;;;4.40;;
66012;SDS011;52783;50.502;8.190;2022-10-18T00:21:18;12.95;;;4.68;;
66012;SDS011;52783;50.502;8.190;2022-10-18T00:23:47;16.98;;;5.05;;
66012;SDS011;52783;50.502;8.190;2022-10-18T00:26:14;11.40;;;4.90;;
66012;SDS011;52783;50.502;8.190;2022-10-18T00:28:41;13.20;;;5.03;;
66012;SDS011;52783;50.502;8.190;2022-10-18T00:31:08;16.17;;;4.70;;
66012;SDS011;52783;50.502;8.190;2022-10-18T00:33:34;25.70;;;5.13;;
66012;SDS011;52783;50.502;8.190;2022-10-18T00:35:59;17.33;;;5.07;;
66012;SDS011;52783;50.502;8.190;2022-10-18T00:38:25;16.38;;;5.05;;
66012;SDS011;52783;50.502;8.190;2022-10-18T00:40:50;14.57;;;5.55;;
66012;SDS011;52783;50.502;8.190;2022-10-18T00:43:16;48.03;;;21.45;;
66012;SDS011;52783;50.502;8.190;2022-10-18T00:45:42;39.38;;;19.30;;
66012;SDS011;52783;50.502;8.190;2022-10-18T00:48:08;17.85;;;7.38;;
66012;SDS011;52783;50.502;8.190;2022-10-18T00:50:35;23.90;;;7.70;;
66012;SDS011;52783;50.502;8.190;2022-10-18T00:53:02;24.40;;;5.50;;
66012;SDS011;52783;50.502;8.190;2022-10-18T00:55:32;13.60;;;6.75;;
66012;SDS011;52783;50.502;8.190;2022-10-18T00:57:58;25.70;;;7.15;;
66012;SDS011;52783;50.502;8.190;2022-10-18T01:00:24;25.13;;;6.97;;
66012;SDS011;52783;50.502;8.190;2022-10-18T01:02:50;12.77;;;6.35;;
66012;SDS011;52783;50.502;8.190;2022-10-18T01:05:16;15.05;;;6.30;;
66012;SDS011;52783;50.502;8.190;2022-10-18T01:07:52;12.10;;;5.65;;
66012;SDS011;52783;50.502;8.190;2022-10-18T01:13:34;18.15;;;6.30;;
66012;SDS011;52783;50.502;8.190;2022-10-18T01:36:13;20.55;;;4.70;;
66012;SDS011;52783;50.502;8.190;2022-10-18T01:38:43;13.88;;;4.78;;
66012;SDS011;52783;50.502;8.190;2022-10-18T01:41:11;18.27;;;4.68;;
66012;SDS011;52783;50.502;8.190;2022-10-18T01:43:37;10.15;;;4.53;;
66012;SDS011;52783;50.502;8.190;2022-10-18T01:46:04;15.60;;;5.18;;
66012;SDS011;52783;50.502;8.190;2022-10-18T01:48:32;13.32;;;4.50;;
66012;SDS011;52783;50.502;8.190;2022-10-18T01:51:01;19.27;;;4.88;;
66012;SDS011;52783;50.502;8.190;2022-10-18T01:53:29;13.45;;;4.50;;
66012;SDS011;52783;50.502;8.190;2022-10-18T01:58:58;12.07;;;4.88;;
66012;SDS011;52783;50.502;8.190;2022-10-18T02:10:50;21.42;;;5.60;;
66012;SDS011;52783;50.502;8.190;2022-10-18T02:13:29;11.20;;;5.75;;
66012;SDS011;52783;50.502;8.190;2022-10-18T02:16:25;15.98;;;5.22;;
66012;SDS011;52783;50.502;8.190;2022-10-18T02:18:59;21.67;;;6.93;;
66012;SDS011;52783;50.502;8.190;2022-10-18T02:21:28;12.93;;;5.78;;
66012;SDS011;52783;50.502;8.190;2022-10-18T02:23:55;14.60;;;6.22;;
66012;SDS011;52783;50.502;8.190;2022-10-18T02:26:23;17.83;;;7.00;;
66012;SDS011;52783;50.502;8.190;2022-10-18T02:28:49;21.23;;;6.47;;
66012;SDS011;52783;50.502;8.190;2022-10-18T02:31:25;18.98;;;6.45;;
66012;SDS011;52783;50.502;8.190;2022-10-18T02:36:41;10.95;;;6.25;;
66012;SDS011;52783;50.502;8.190;2022-10-18T02:39:12;15.00;;;6.55;;
66012;SDS011;52783;50.502;8.190;2022-10-18T02:41:41;14.82;;;6.53;;
66012;SDS011;52783;50.502;8.190;2022-10-18T02:44:08;13.57;;;6.20;;
66012;SDS011;52783;50.502;8.190;2022-10-18T02:46:34;13.50;;;6.20;;
66012;SDS011;52783;50.502;8.190;2022-10-18T02:49:00;14.18;;;6.50;;
66012;SDS011;52783;50.502;8.190;2022-10-18T02:51:25;11.90;;;6.13;;
66012;SDS011;52783;50.502;8.190;2022-10-18T02:53:51;13.15;;;5.70;;
66012;SDS011;52783;50.502;8.190;2022-10-18T02:56:16;10.05;;;5.32;;
66012;SDS011;52783;50.502;8.190;2022-10-18T02:58:42;13.10;;;5.90;;
66012;SDS011;52783;50.502;8.190;2022-10-18T03:01:07;8.95;;;5.45;;
66012;SDS011;52783;50.502;8.190;2022-10-18T03:03:33;7.82;;;5.65;;
66012;SDS011;52783;50.502;8.190;2022-10-18T03:05:58;9.52;;;5.25;;
66012;SDS011;52783;50.502;8.190;2022-10-18T03:08:24;8.85;;;5.15;;
66012;SDS011;52783;50.502;8.190;2022-10-18T03:10:50;7.50;;;4.82;;
66012;SDS011;52783;50.502;8.190;2022-10-18T03:13:15;7.45;;;4.78;;
66012;SDS011;52783;50.502;8.190;2022-10-18T03:15:41;12.50;;;5.45;;
66012;SDS011;52783;50.502;8.190;2022-10-18T03:18:06;6.10;;;4.82;;
66012;SDS011;52783;50.502;8.190;2022-10-18T03:20:32;8.10;;;4.28;;
66012;SDS011;52783;50.502;8.190;2022-10-18T03:22:58;6.28;;;4.65;;
66012;SDS011;52783;50.502;8.190;2022-10-18T03:25:24;9.15;;;4.50;;
66012;SDS011;52783;50.502;8.190;2022-10-18T03:27:49;7.65;;;4.30;;
66012;SDS011;52783;50.502;8.190;2022-10-18T03:30:15;5.72;;;4.20;;
66012;SDS011;52783;50.502;8.190;2022-10-18T03:32:40;10.13;;;4.60;;
66012;SDS011;52783;50.502;8.190;2022-10-18T03:35:06;11.13;;;4.40;;
66012;SDS011;52783;50.502;8.190;2022-10-18T03:37:33;6.75;;;4.32;;
66012;SDS011;52783;50.502;8.190;2022-10-18T03:39:59;8.25;;;4.07;;
66012;SDS011;52783;50.502;8.190;2022-10-18T03:42:24;10.65;;;4.10;;
66012;SDS011;52783;50.502;8.190;2022-10-18T03:44:50;5.65;;;4.40;;
66012;SDS011;52783;50.502;8.190;2022-10-18T03:47:15;13.27;;;4.90;;
66012;SDS011;52783;50.502;8.190;2022-10-18T03:49:41;6.32;;;4.28;;
66012;SDS011;52783;50.502;8.190;2022-10-18T03:52:06;6.90;;;4.43;;
66012;SDS011;52783;50.502;8.190;2022-10-18T03:54:32;9.90;;;4.50;;
66012;SDS011;52783;50.502;8.190;2022-10-18T03:56:57;7.00;;;4.28;;
66012;SDS011;52783;50.502;8.190;2022-10-18T03:59:23;7.20;;;4.55;;
66012;SDS011;52783;50.502;8.190;2022-10-18T04:01:48;11.68;;;4.38;;
66012;SDS011;52783;50.502;8.190;2022-10-18T04:04:14;5.72;;;2.80;;
66012;SDS011;52783;50.502;8.190;2022-10-18T04:06:40;8.82;;;3.20;;
66012;SDS011;52783;50.502;8.190;2022-10-18T04:09:05;3.50;;;2.67;;
66012;SDS011;52783;50.502;8.190;2022-10-18T04:11:31;4.03;;;2.72;;
66012;SDS011;52783;50.502;8.190;2022-10-18T04:13:57;8.55;;;3.92;;
66012;SDS011;52783;50.502;8.190;2022-10-18T04:16:22;6.05;;;3.50;;
66012;SDS011;52783;50.502;8.190;2022-10-18T04:18:48;5.97;;;3.78;;
66012;SDS011;52783;50.502;8.190;2022-10-18T04:21:14;4.30;;;3.40;;
66012;SDS011;52783;50.502;8.190;2022-10-18T04:23:40;5.53;;;3.10;;
66012;SDS011;52783;50.502;8.190;2022-10-18T04:26:05;7.00;;;3.60;;
66012;SDS011;52783;50.502;8.190;2022-10-18T04:28:32;5.70;;;4.22;;
66012;SDS011;52783;50.502;8.190;2022-10-18T04:30:58;8.02;;;4.25;;
66012;SDS011;52783;50.502;8.190;2022-10-18T04:33:24;7.50;;;4.63;;
66012;SDS011;52783;50.502;8.190;2022-10-18T04:35:50;6.15;;;4.38;;
66012;SDS011;52783;50.502;8.190;2022-10-18T04:38:17;6.20;;;4.35;;
66012;SDS011;52783;50.502;8.190;2022-10-18T04:40:43;10.27;;;5.78;;
66012;SDS011;52783;50.502;8.190;2022-10-18T04:43:09;17.48;;;6.47;;
66012;SDS011;52783;50.502;8.190;2022-10-18T04:45:34;16.15;;;6.60;;
66012;SDS011;52783;50.502;8.190;2022-10-18T04:48:00;24.25;;;7.47;;
66012;SDS011;52783;50.502;8.190;2022-10-18T04:50:26;45.15;;;12.52;;
66012;SDS011;52783;50.502;8.190;2022-10-18T04:52:51;54.33;;;14.32;;
66012;SDS011;52783;50.502;8.190;2022-10-18T04:55:17;26.70;;;9.02;;
66012;SDS011;52783;50.502;8.190;2022-10-18T04:57:44;11.70;;;7.22;;
66012;SDS011;52783;50.502;8.190;2022-10-18T05:00:09;12.30;;;7.35;;
66012;SDS011;52783;50.502;8.190;2022-10-18T05:02:35;19.85;;;7.25;;
66012;SDS011;52783;50.502;8.190;2022-10-18T05:05:01;14.13;;;6.88;;
66012;SDS011;52783;50.502;8.190;2022-10-18T05:07:27;11.70;;;7.15;;
66012;SDS011;52783;50.502;8.190;2022-10-18T05:09:53;14.02;;;7.10;;
66012;SDS011;52783;50.502;8.190;2022-10-18T05:12:18;13.48;;;6.95;;
66012;SDS011;52783;50.502;8.190;2022-10-18T05:14:44;10.02;;;6.35;;
66012;SDS011;52783;50.502;8.190;2022-10-18T05:17:09;12.43;;;6.60;;
66012;SDS011;52783;50.502;8.190;2022-10-18T05:19:35;12.88;;;7.07;;
66012;SDS011;52783;50.502;8.190;2022-10-18T05:22:01;12.43;;;6.65;;
66012;SDS011;52783;50.502;8.190;2022-10-18T05:24:26;12.02;;;6.43;;
66012;SDS011;52783;50.502;8.190;2022-10-18T05:26:52;14.75;;;7.00;;
66012;SDS011;52783;50.502;8.190;2022-10-18T05:29:17;12.82;;;6.60;;
66012;SDS011;52783;50.502;8.190;2022-10-18T05:31:43;11.52;;;7.35;;
66012;SDS011;52783;50.502;8.190;2022-10-18T05:34:08;11.43;;;6.40;;
66012;SDS011;52783;50.502;8.190;2022-10-18T05:36:34;81.63;;;8.43;;
66012;SDS011;52783;50.502;8.190;2022-10-18T05:39:01;73.60;;;8.48;;
66012;SDS011;52783;50.502;8.190;2022-10-18T05:41:29;14.75;;;7.18;;
66012;SDS011;52783;50.502;8.190;2022-10-18T05:43:54;14.65;;;7.70;;
66012;SDS011;52783;50.502;8.190;2022-10-18T05:46:20;16.55;;;7.97;;
66012;SDS011;52783;50.502;8.190;2022-10-18T05:48:49;12.82;;;7.28;;
66012;SDS011;52783;50.502;8.190;2022-10-18T05:51:15;12.27;;;6.32;;
66012;SDS011;52783;50.502;8.190;2022-10-18T05:53:41;13.38;;;5.97;;
66012;SDS011;52783;50.502;8.190;2022-10-18T05:56:07;9.15;;;5.00;;
66012;SDS011;52783;50.502;8.190;2022-10-18T05:58:33;11.00;;;5.07;;
66012;SDS011;52783;50.502;8.190;2022-10-18T06:00:59;5.88;;;3.88;;
66012;SDS011;52783;50.502;8.190;2022-10-18T06:03:26;4.85;;;3.40;;
66012;SDS011;52783;50.502;8.190;2022-10-18T06:05:51;4.03;;;2.90;;
66012;SDS011;52783;50.502;8.190;2022-10-18T06:08:18;4.05;;;3.20;;
66012;SDS011;52783;50.502;8.190;2022-10-18T06:10:43;3.80;;;3.17;;
66012;SDS011;52783;50.502;8.190;2022-10-18T06:13:09;6.10;;;3.05;;
66012;SDS011;52783;50.502;8.190;2022-10-18T06:15:35;4.95;;;2.70;;
66012;SDS011;52783;50.502;8.190;2022-10-18T06:18:00;3.38;;;2.97;;
66012;SDS011;52783;50.502;8.190;2022-10-18T06:20:26;9.30;;;3.00;;
66012;SDS011;52783;50.502;8.190;2022-10-18T06:22:51;6.20;;;3.10;;
66012;SDS011;52783;50.502;8.190;2022-10-18T06:25:17;3.80;;;2.85;;
66012;SDS011;52783;50.502;8.190;2022-10-18T06:27:43;3.33;;;2.90;;
66012;SDS011;52783;50.502;8.190;2022-10-18T06:30:08;2.83;;;2.60;;
66012;SDS011;52783;50.502;8.190;2022-10-18T06:32:34;2.97;;;2.70;;
66012;SDS011;52783;50.502;8.190;2022-10-18T06:35:00;13.00;;;3.58;;
66012;SDS011;52783;50.502;8.190;2022-10-18T06:37:27;15.60;;;3.30;;
66012;SDS011;52783;50.502;8.190;2022-10-18T06:39:54;5.68;;;3.03;;
66012;SDS011;52783;50.502;8.190;2022-10-18T06:42:19;4.13;;;3.00;;
66012;SDS011;52783;50.502;8.190;2022-10-18T06:44:45;3.75;;;3.03;;
66012;SDS011;52783;50.502;8.190;2022-10-18T06:47:11;6.30;;;3.17;;
66012;SDS011;52783;50.502;8.190;2022-10-18T06:49:37;4.25;;;3.28;;
66012;SDS011;52783;50.502;8.190;2022-10-18T06:52:02;3.67;;;2.92;;
66012;SDS011;52783;50.502;8.190;2022-10-18T06:54:28;7.93;;;3.20;;
66012;SDS011;52783;50.502;8.190;2022-10-18T06:56:54;4.88;;;3.22;;
66012;SDS011;52783;50.502;8.190;2022-10-18T06:59:21;6.13;;;3.42;;
66012;SDS011;52783;50.502;8.190;2022-10-18T07:01:47;5.97;;;3.47;;
66012;SDS011;52783;50.502;8.190;2022-10-18T07:04:12;4.00;;;3.55;;
66012;SDS011;52783;50.502;8.190;2022-10-18T07:06:38;12.52;;;3.72;;
66012;SDS011;52783;50.502;8.190;2022-10-18T07:09:03;13.48;;;4.32;;
66012;SDS011;52783;50.502;8.190;2022-10-18T07:11:29;9.50;;;3.83;;
66012;SDS011;52783;50.502;8.190;2022-10-18T07:13:57;8.32;;;3.22;;
66012;SDS011;52783;50.502;8.190;2022-10-18T07:16:26;5.30;;;3.40;;
66012;SDS011;52783;50.502;8.190;2022-10-18T07:18:52;5.65;;;3.13;;
66012;SDS011;52783;50.502;8.190;2022-10-18T07:21:19;5.68;;;3.30;;
66012;SDS011;52783;50.502;8.190;2022-10-18T07:23:46;3.50;;;2.83;;
66012;SDS011;52783;50.502;8.190;2022-10-18T07:28:44;4.28;;;3.17;;
66012;SDS011;52783;50.502;8.190;2022-10-18T07:31:11;6.75;;;3.30;;
66012;SDS011;52783;50.502;8.190;2022-10-18T07:33:37;4.13;;;2.90;;
66012;SDS011;52783;50.502;8.190;2022-10-18T07:36:06;6.65;;;2.50;;
66012;SDS011;52783;50.502;8.190;2022-10-18T07:38:33;3.72;;;2.75;;
66012;SDS011;52783;50.502;8.190;2022-10-18T07:41:00;3.90;;;3.58;;
66012;SDS011;52783;50.502;8.190;2022-10-18T07:43:28;4.72;;;2.90;;
66012;SDS011;52783;50.502;8.190;2022-10-18T07:45:54;2.78;;;2.50;;
66012;SDS011;52783;50.502;8.190;2022-10-18T07:48:21;2.70;;;2.50;;
66012;SDS011;52783;50.502;8.190;2022-10-18T07:50:48;2.53;;;2.33;;
66012;SDS011;52783;50.502;8.190;2022-10-18T07:53:13;4.25;;;2.40;;
66012;SDS011;52783;50.502;8.190;2022-10-18T07:55:39;4.93;;;2.03;;
66012;SDS011;52783;50.502;8.190;2022-10-18T07:58:05;3.70;;;2.17;;
66012;SDS011;52783;50.502;8.190;2022-10-18T08:00:31;2.88;;;2.50;;
66012;SDS011;52783;50.502;8.190;2022-10-18T08:02:57;3.22;;;2.60;;
66012;SDS011;52783;50.502;8.190;2022-10-18T08:05:23;3.22;;;2.55;;
66012;SDS011;52783;50.502;8.190;2022-10-18T08:07:49;4.90;;;2.30;;
66012;SDS011;52783;50.502;8.190;2022-10-18T08:10:15;2.50;;;2.30;;
66012;SDS011;52783;50.502;8.190;2022-10-18T08:12:41;5.72;;;2.13;;
66012;SDS011;52783;50.502;8.190;2022-10-18T08:15:06;5.25;;;2.20;;
66012;SDS011;52783;50.502;8.190;2022-10-18T08:17:32;3.38;;;2.58;;
66012;SDS011;52783;50.502;8.190;2022-10-18T08:19:58;5.80;;;2.83;;
66012;SDS011;52783;50.502;8.190;2022-10-18T08:22:23;2.88;;;2.60;;
66012;SDS011;52783;50.502;8.190;2022-10-18T08:24:49;3.67;;;2.30;;
66012;SDS011;52783;50.502;8.190;2022-10-18T08:27:15;3.90;;;2.50;;
66012;SDS011;52783;50.502;8.190;2022-10-18T08:29:40;7.50;;;2.22;;
66012;SDS011;52783;50.502;8.190;2022-10-18T08:32:06;2.40;;;2.20;;
66012;SDS011;52783;50.502;8.190;2022-10-18T08:34:32;2.60;;;2.35;;
66012;SDS011;52783;50.502;8.190;2022-10-18T08:36:58;2.17;;;2.08;;
66012;SDS011;52783;50.502;8.190;2022-10-18T08:42:09;4.60;;;2.15;;
66012;SDS011;52783;50.502;8.190;2022-10-18T08:44:43;4.88;;;2.15;;
66012;SDS011;52783;50.502;8.190;2022-10-18T08:47:12;1.92;;;1.83;;
66012;SDS011;52783;50.502;8.190;2022-10-18T08:49:46;2.07;;;1.97;;
66012;SDS011;52783;50.502;8.190;2022-10-18T08:52:27;5.10;;;1.88;;
66012;SDS011;52783;50.502;8.190;2022-10-18T08:55:23;3.38;;;1.67;;
66012;SDS011;52783;50.502;8.190;2022-10-18T08:58:00;3.95;;;2.10;;
66012;SDS011;52783;50.502;8.190;2022-10-18T09:00:37;5.57;;;2.25;;
66012;SDS011;52783;50.502;8.190;2022-10-18T09:03:20;2.03;;;1.92;;
66012;SDS011;52783;50.502;8.190;2022-10-18T09:05:50;2.25;;;2.05;;
66012;SDS011;52783;50.502;8.190;2022-10-18T09:16:47;8.32;;;1.92;;
66012;SDS011;52783;50.502;8.190;2022-10-18T09:24:48;4.03;;;2.50;;
66012;SDS011;52783;50.502;8.190;2022-10-18T09:27:16;6.70;;;2.25;;
66012;SDS011;52783;50.502;8.190;2022-10-18T09:29:56;4.43;;;2.70;;
66012;SDS011;52783;50.502;8.190;2022-10-18T09:35:20;5.45;;;1.90;;
66012;SDS011;52783;50.502;8.190;2022-10-18T09:37:49;2.67;;;1.70;;
66012;SDS011;52783;50.502;8.190;2022-10-18T09:40:18;3.70;;;1.90;;
66012;SDS011;52783;50.502;8.190;2022-10-18T09:42:56;7.50;;;1.83;;
66012;SDS011;52783;50.502;8.190;2022-10-18T09:45:42;6.20;;;1.50;;
66012;SDS011;52783;50.502;8.190;2022-10-18T09:48:25;1.25;;;1.25;;
66012;SDS011;52783;50.502;8.190;2022-10-18T09:50:56;3.05;;;1.30;;
66012;SDS011;52783;50.502;8.190;2022-10-18T09:56:07;1.33;;;1.17;;
66012;SDS011;52783;50.502;8.190;2022-10-18T09:58:40;3.83;;;1.50;;
66012;SDS011;52783;50.502;8.190;2022-10-18T10:01:09;2.13;;;1.30;;
66012;SDS011;52783;50.502;8.190;2022-10-18T10:03:37;2.05;;;1.40;;
66012;SDS011;52783;50.502;8.190;2022-10-18T10:08:40;1.23;;;1.13;;
66012;SDS011;52783;50.502;8.190;2022-10-18T10:14:13;3.75;;;1.20;;
66012;SDS011;52783;50.502;8.190;2022-10-18T10:16:51;2.35;;;1.15;;
66012;SDS011;52783;50.502;8.190;2022-10-18T10:19:18;3.00;;;0.98;;
66012;SDS011;52783;50.502;8.190;2022-10-18T10:21:50;1.42;;;1.10;;
66012;SDS011;52783;50.502;8.190;2022-10-18T10:32:12;7.05;;;1.45;;
66012;SDS011;52783;50.502;8.190;2022-10-18T10:34:39;4.55;;;1.30;;
66012;SDS011;52783;50.502;8.190;2022-10-18T10:37:24;6.70;;;1.00;;
66012;SDS011;52783;50.502;8.190;2022-10-18T10:40:19;5.28;;;1.10;;
66012;SDS011;52783;50.502;8.190;2022-10-18T10:42:56;4.60;;;1.38;;
66012;SDS011;52783;50.502;8.190;2022-10-18T10:45:26;1.63;;;1.40;;
66012;SDS011;52783;50.502;8.190;2022-10-18T10:47:53;1.50;;;1.33;;
66012;SDS011;52783;50.502;8.190;2022-10-18T10:50:27;0.88;;;0.88;;
66012;SDS011;52783;50.502;8.190;2022-10-18T10:52:53;1.52;;;1.20;;
66012;SDS011;52783;50.502;8.190;2022-10-18T10:55:22;1.10;;;1.00;;
66012;SDS011;52783;50.502;8.190;2022-10-18T10:57:52;3.38;;;1.10;;
66012;SDS011;52783;50.502;8.190;2022-10-18T11:00:39;4.30;;;0.95;;
66012;SDS011;52783;50.502;8.190;2022-10-18T11:03:14;1.33;;;1.20;;
66012;SDS011;52783;50.502;8.190;2022-10-18T11:05:49;3.13;;;1.00;;
66012;SDS011;52783;50.502;8.190;2022-10-18T11:08:26;3.65;;;1.38;;
66012;SDS011;52783;50.502;8.190;2022-10-18T11:11:12;1.92;;;1.17;;
66012;SDS011;52783;50.502;8.190;2022-10-18T11:16:23;7.45;;;1.27;;
66012;SDS011;52783;50.502;8.190;2022-10-18T11:19:01;4.55;;;2.60;;
66012;SDS011;52783;50.502;8.190;2022-10-18T11:21:41;5.20;;;1.60;;
66012;SDS011;52783;50.502;8.190;2022-10-18T11:24:09;4.15;;;1.52;;
66012;SDS011;52783;50.502;8.190;2022-10-18T11:26:46;5.30;;;1.70;;
66012;SDS011;52783;50.502;8.190;2022-10-18T11:29:26;1.25;;;1.25;;
66012;SDS011;52783;50.502;8.190;2022-10-18T11:37:35;1.25;;;1.20;;
66012;SDS011;52783;50.502;8.190;2022-10-18T11:54:23;1.83;;;1.42;;
66012;SDS011;52783;50.502;8.190;2022-10-18T11:57:05;4.25;;;1.90;;
66012;SDS011;52783;50.502;8.190;2022-10-18T12:00:02;8.15;;;1.67;;
66012;SDS011;52783;50.502;8.190;2022-10-18T12:05:15;2.78;;;1.58;;
66012;SDS011;52783;50.502;8.190;2022-10-18T12:07:42;6.18;;;1.48;;
66012;SDS011;52783;50.502;8.190;2022-10-18T12:10:22;3.35;;;1.60;;
66012;SDS011;52783;50.502;8.190;2022-10-18T12:12:51;8.52;;;1.77;;
66012;SDS011;52783;50.502;8.190;2022-10-18T12:15:21;9.10;;;1.23;;
66012;SDS011;52783;50.502;8.190;2022-10-18T12:17:51;7.68;;;1.33;;
66012;SDS011;52783;50.502;8.190;2022-10-18T12:20:25;14.35;;;1.95;;
66012;SDS011;52783;50.502;8.190;2022-10-18T12:25:29;7.60;;;1.20;;
66012;SDS011;52783;50.502;8.190;2022-10-18T12:28:01;2.28;;;1.00;;
66012;SDS011;52783;50.502;8.190;2022-10-18T12:30:53;5.32;;;1.20;;
66012;SDS011;52783;50.502;8.190;2022-10-18T12:33:22;8.63;;;1.45;;
66012;SDS011;52783;50.502;8.190;2022-10-18T12:38:27;1.80;;;1.40;;
66012;SDS011;52783;50.502;8.190;2022-10-18T12:40:55;1.60;;;1.50;;
66012;SDS011;52783;50.502;8.190;2022-10-18T12:43:29;4.32;;;1.35;;
66012;SDS011;52783;50.502;8.190;2022-10-18T12:46:00;4.03;;;2.25;;
66012;SDS011;52783;50.502;8.190;2022-10-18T12:48:38;6.75;;;2.00;;
66012;SDS011;52783;50.502;8.190;2022-10-18T12:51:16;3.30;;;1.80;;
66012;SDS011;52783;50.502;8.190;2022-10-18T12:53:44;8.07;;;1.77;;
66012;SDS011;52783;50.502;8.190;2022-10-18T13:09:23;4.32;;;1.50;;
66012;SDS011;52783;50.502;8.190;2022-10-18T13:25:02;7.32;;;1.60;;
66012;SDS011;52783;50.502;8.190;2022-10-18T13:27:48;1.80;;;1.60;;
66012;SDS011;52783;50.502;8.190;2022-10-18T13:33:23;1.90;;;1.50;;
66012;SDS011;52783;50.502;8.190;2022-10-18T13:40:59;4.60;;;2.10;;
66012;SDS011;52783;50.502;8.190;2022-10-18T13:57:08;6.25;;;2.22;;
66012;SDS011;52783;50.502;8.190;2022-10-18T14:05:07;4.13;;;2.40;;
66012;SDS011;52783;50.502;8.190;2022-10-18T14:07:43;2.53;;;2.33;;
66012;SDS011;52783;50.502;8.190;2022-10-18T14:10:14;4.40;;;2.50;;
66012;SDS011;52783;50.502;8.190;2022-10-18T14:12:47;7.63;;;2.20;;
66012;SDS011;52783;50.502;8.190;2022-10-18T14:15:25;6.43;;;2.80;;
66012;SDS011;52783;50.502;8.190;2022-10-18T14:18:04;7.07;;;2.70;;
66012;SDS011;52783;50.502;8.190;2022-10-18T14:20:40;4.68;;;2.70;;
66012;SDS011;52783;50.502;8.190;2022-10-18T14:23:11;3.75;;;2.60;;
66012;SDS011;52783;50.502;8.190;2022-10-18T14:25:41;3.95;;;2.63;;
66012;SDS011;52783;50.502;8.190;2022-10-18T14:28:20;4.30;;;2.78;;
66012;SDS011;52783;50.502;8.190;2022-10-18T14:30:57;7.80;;;2.80;;
66012;SDS011;52783;50.502;8.190;2022-10-18T14:33:51;6.13;;;2.83;;
66012;SDS011;52783;50.502;8.190;2022-10-18T14:38:53;7.28;;;2.90;;
66012;SDS011;52783;50.502;8.190;2022-10-18T14:41:34;4.43;;;2.80;;
66012;SDS011;52783;50.502;8.190;2022-10-18T14:46:42;4.65;;;2.70;;
66012;SDS011;52783;50.502;8.190;2022-10-18T14:49:23;3.10;;;2.65;;
66012;SDS011;52783;50.502;8.190;2022-10-18T14:51:49;5.80;;;2.55;;
66012;SDS011;52783;50.502;8.190;2022-10-18T14:54:17;6.53;;;2.70;;
66012;SDS011;52783;50.502;8.190;2022-10-18T14:56:45;3.78;;;2.47;;
66012;SDS011;52783;50.502;8.190;2022-10-18T14:59:14;6.78;;;3.03;;
66012;SDS011;52783;50.502;8.190;2022-10-18T15:01:56;7.05;;;2.80;;
66012;SDS011;52783;50.502;8.190;2022-10-18T15:04:24;3.90;;;2.80;;
66012;SDS011;52783;50.502;8.190;2022-10-18T15:06:57;3.85;;;2.88;;
66012;SDS011;52783;50.502;8.190;2022-10-18T15:09:27;3.53;;;2.88;;
66012;SDS011;52783;50.502;8.190;2022-10-18T15:11:54;6.22;;;3.20;;
66012;SDS011;52783;50.502;8.190;2022-10-18T15:14:21;6.53;;;3.20;;
66012;SDS011;52783;50.502;8.190;2022-10-18T15:16:51;3.00;;;2.80;;
66012;SDS011;52783;50.502;8.190;2022-10-18T15:19:25;5.85;;;2.97;;
66012;SDS011;52783;50.502;8.190;2022-10-18T15:22:01;10.50;;;3.65;;
66012;SDS011;52783;50.502;8.190;2022-10-18T15:24:30;8.02;;;3.35;;
66012;SDS011;52783;50.502;8.190;2022-10-18T15:27:19;7.60;;;4.03;;
66012;SDS011;52783;50.502;8.190;2022-10-18T15:29:50;6.97;;;4.45;;
66012;SDS011;52783;50.502;8.190;2022-10-18T15:34:51;6.82;;;3.75;;
66012;SDS011;52783;50.502;8.190;2022-10-18T15:42:52;13.35;;;3.60;;
66012;SDS011;52783;50.502;8.190;2022-10-18T15:58:49;5.70;;;3.72;;
66012;SDS011;52783;50.502;8.190;2022-10-18T16:01:16;7.25;;;4.18;;
66012;SDS011;52783;50.502;8.190;2022-10-18T16:03:46;6.60;;;4.10;;
66012;SDS011;52783;50.502;8.190;2022-10-18T16:06:14;6.53;;;4.15;;
66012;SDS011;52783;50.502;8.190;2022-10-18T16:08:41;5.80;;;3.65;;
66012;SDS011;52783;50.502;8.190;2022-10-18T16:11:12;8.05;;;3.95;;
66012;SDS011;52783;50.502;8.190;2022-10-18T16:13:40;7.05;;;4.03;;
66012;SDS011;52783;50.502;8.190;2022-10-18T16:16:08;7.72;;;4.18;;
66012;SDS011;52783;50.502;8.190;2022-10-18T16:18:37;9.73;;;4.63;;
66012;SDS011;52783;50.502;8.190;2022-10-18T16:21:03;11.45;;;4.35;;
66012;SDS011;52783;50.502;8.190;2022-10-18T16:23:29;9.43;;;4.68;;
66012;SDS011;52783;50.502;8.190;2022-10-18T16:25:54;8.35;;;4.63;;
66012;SDS011;52783;50.502;8.190;2022-10-18T16:28:21;9.85;;;4.40;;
66012;SDS011;52783;50.502;8.190;2022-10-18T16:30:56;6.85;;;4.95;;
66012;SDS011;52783;50.502;8.190;2022-10-18T16:33:24;9.23;;;4.47;;
66012;SDS011;52783;50.502;8.190;2022-10-18T16:35:50;6.18;;;4.93;;
66012;SDS011;52783;50.502;8.190;2022-10-18T16:38:35;13.77;;;4.95;;
66012;SDS011;52783;50.502;8.190;2022-10-18T16:41:05;13.55;;;4.78;;
66012;SDS011;52783;50.502;8.190;2022-10-18T16:43:32;9.77;;;5.38;;
66012;SDS011;52783;50.502;8.190;2022-10-18T16:45:59;8.95;;;5.25;;
66012;SDS011;52783;50.502;8.190;2022-10-18T16:48:25;8.85;;;5.55;;
66012;SDS011;52783;50.502;8.190;2022-10-18T16:50:51;13.73;;;5.15;;
66012;SDS011;52783;50.502;8.190;2022-10-18T16:53:18;10.85;;;5.13;;
66012;SDS011;52783;50.502;8.190;2022-10-18T16:55:48;10.07;;;5.43;;
66012;SDS011;52783;50.502;8.190;2022-10-18T16:58:16;12.35;;;5.55;;
66012;SDS011;52783;50.502;8.190;2022-10-18T17:00:43;10.55;;;6.53;;
66012;SDS011;52783;50.502;8.190;2022-10-18T17:03:10;13.70;;;7.07;;
66012;SDS011;52783;50.502;8.190;2022-10-18T17:05:36;13.90;;;7.43;;
66012;SDS011;52783;50.502;8.190;2022-10-18T17:08:02;21.00;;;12.60;;
66012;SDS011;52783;50.502;8.190;2022-10-18T17:10:27;18.88;;;11.35;;
66012;SDS011;52783;50.502;8.190;2022-10-18T17:12:53;18.17;;;11.25;;
66012;SDS011;52783;50.502;8.190;2022-10-18T17:15:19;14.25;;;9.90;;
66012;SDS011;52783;50.502;8.190;2022-10-18T17:17:45;16.35;;;10.27;;
66012;SDS011;52783;50.502;8.190;2022-10-18T17:20:15;16.17;;;10.48;;
66012;SDS011;52783;50.502;8.190;2022-10-18T17:22:44;18.08;;;10.98;;
66012;SDS011;52783;50.502;8.190;2022-10-18T17:25:09;16.17;;;10.65;;
66012;SDS011;52783;50.502;8.190;2022-10-18T17:27:35;16.88;;;10.80;;
66012;SDS011;52783;50.502;8.190;2022-10-18T17:30:01;16.27;;;10.07;;
66012;SDS011;52783;50.502;8.190;2022-10-18T17:32:26;19.80;;;11.32;;
66012;SDS011;52783;50.502;8.190;2022-10-18T17:34:52;18.67;;;12.40;;
66012;SDS011;52783;50.502;8.190;2022-10-18T17:37:17;22.10;;;12.57;;
66012;SDS011;52783;50.502;8.190;2022-10-18T17:39:43;21.20;;;9.55;;
66012;SDS011;52783;50.502;8.190;2022-10-18T17:42:08;21.88;;;10.65;;
66012;SDS011;52783;50.502;8.190;2022-10-18T17:44:34;18.15;;;10.25;;
66012;SDS011;52783;50.502;8.190;2022-10-18T17:46:59;21.50;;;9.82;;
66012;SDS011;52783;50.502;8.190;2022-10-18T17:49:25;26.80;;;8.98;;
66012;SDS011;52783;50.502;8.190;2022-10-18T17:51:50;26.40;;;11.90;;
66012;SDS011;52783;50.502;8.190;2022-10-18T17:54:16;14.80;;;10.43;;
66012;SDS011;52783;50.502;8.190;2022-10-18T17:56:41;19.30;;;10.05;;
66012;SDS011;52783;50.502;8.190;2022-10-18T17:59:09;25.17;;;11.73;;